Pronóstico
Mapa Interactivo
Aviación
Climatología
Hidrometeorología
Agrometeorología
Estaciones Automáticas
Transparencia
OMM WMO
Portada
Institución
Noticias
Imágenes
Tsunami
Historial
Boletines y Alertas
Contactos
Buscar Contenidos
Informe del Tiempo

SADR31 MDSD 192000Z
METAR

METAR MDPP 192000Z 09005KT 9999 SCT022 30/24 Q1014=
METAR MDST 192000Z 12010KT 9999 FEW018CB SCT022 SCT300 30/22 Q1013
CB/S/SW=
METAR MDPC 192000Z 07008KT 9999 FEW025 29/24 Q1013 NOSIG=
METAR MDBH 192000Z 13008KT 9999 FEW020CB SCT022 SCT080 BKN300 30/24
Q1013 CB/E/NW=
METAR MDJB 192000Z 03008KT 9999 SCT020 30/23 Q1013 NOSIG=
METAR MDSD 192000Z 04008KT 9999 SCT018 29/24 Q1012=
METAR MDLR 192000Z 36010KT 9999 SCT022 29/24 Q1013=
METAR MDCY 192000Z 03010KT 9999 SCT020 29/24 Q1014=
METAR MDAB 192000Z 36004KT 9999 SCT020 29/26 Q1013=